createdAt,value
2016-12-18T00:00:10.468Z,8.3
2016-12-18T00:00:36.569Z,8.28
2016-12-18T00:01:02.718Z,8.31
2016-12-18T00:01:28.858Z,8.28
2016-12-18T00:01:55.010Z,8.2
2016-12-18T00:02:21.127Z,8.26
2016-12-18T00:02:47.246Z,8.27
2016-12-18T00:03:13.417Z,8.31
2016-12-18T00:03:39.567Z,8.31
2016-12-18T00:04:05.699Z,8.28
2016-12-18T00:04:31.817Z,8.34
2016-12-18T00:04:57.942Z,8.3
2016-12-18T00:05:24.088Z,8.36
2016-12-18T00:05:50.226Z,8.45
2016-12-18T00:06:16.353Z,8.48
2016-12-18T00:06:42.520Z,8.49
2016-12-18T00:07:08.653Z,8.48
2016-12-18T00:07:34.867Z,8.44
2016-12-18T00:08:00.958Z,8.56
2016-12-18T00:08:27.071Z,8.58
2016-12-18T00:08:53.238Z,8.49
2016-12-18T00:09:19.379Z,8.64
2016-12-18T00:09:45.499Z,8.61
2016-12-18T00:10:11.616Z,8.67
2016-12-18T00:10:37.754Z,8.69
2016-12-18T00:11:03.889Z,8.7
2016-12-18T00:11:30.018Z,8.74
2016-12-18T00:11:56.152Z,8.7
2016-12-18T00:12:22.258Z,8.74
2016-12-18T00:12:48.397Z,8.74
2016-12-18T00:13:14.605Z,8.73
2016-12-18T00:13:40.746Z,8.76
2016-12-18T00:14:06.864Z,8.78
2016-12-18T00:14:33.003Z,8.82
2016-12-18T00:14:59.152Z,8.76
2016-12-18T00:15:25.323Z,8.73
2016-12-18T00:15:51.420Z,8.74
2016-12-18T00:16:17.534Z,8.73
2016-12-18T00:16:43.706Z,8.7
2016-12-18T00:17:09.830Z,8.74
2016-12-18T00:17:35.962Z,8.73
2016-12-18T00:18:02.087Z,8.74
2016-12-18T00:18:28.242Z,8.66
2016-12-18T00:18:54.418Z,8.6
2016-12-18T00:19:20.574Z,8.51
2016-12-18T00:19:46.683Z,8.42
2016-12-18T00:20:12.817Z,8.55
2016-12-18T00:20:38.941Z,8.46
2016-12-18T00:21:05.146Z,8.51
2016-12-18T00:21:31.221Z,8.48
2016-12-18T00:21:57.332Z,8.52
2016-12-18T00:22:23.493Z,8.48
2016-12-18T00:22:49.626Z,8.46
2016-12-18T00:23:15.759Z,8.42
2016-12-18T00:23:41.861Z,8.37
2016-12-18T00:24:07.985Z,8.36
2016-12-18T00:24:34.141Z,8.44
2016-12-18T00:25:00.264Z,8.42
2016-12-18T00:25:26.380Z,8.52
2016-12-18T00:25:52.495Z,8.42
2016-12-18T00:26:18.730Z,8.31
2016-12-18T00:26:44.906Z,8.38
2016-12-18T00:27:11.015Z,8.34
2016-12-18T00:27:37.136Z,8.38
2016-12-18T00:28:03.305Z,8.34
2016-12-18T00:28:29.475Z,8.36
2016-12-18T00:28:55.633Z,8.33
2016-12-18T00:29:21.757Z,8.42
2016-12-18T00:29:47.879Z,8.45
2016-12-18T00:30:14.054Z,8.46
2016-12-18T00:30:40.231Z,8.49
2016-12-18T00:31:06.349Z,8.49
2016-12-18T00:31:32.469Z,8.56
2016-12-18T00:31:58.570Z,8.58
2016-12-18T00:32:24.686Z,8.42
2016-12-18T00:32:50.811Z,8.45
2016-12-18T00:33:16.941Z,8.48
2016-12-18T00:33:43.097Z,8.51
2016-12-18T00:34:09.217Z,8.46
2016-12-18T00:34:35.327Z,8.51
2016-12-18T00:35:01.504Z,8.49
2016-12-18T00:35:27.648Z,8.45
2016-12-18T00:35:53.785Z,8.44
2016-12-18T00:36:19.905Z,8.38
2016-12-18T00:36:46.011Z,8.46
2016-12-18T00:37:12.123Z,8.49
2016-12-18T00:37:38.249Z,8.45
2016-12-18T00:38:04.357Z,8.42
2016-12-18T00:38:30.462Z,8.49
2016-12-18T00:38:56.621Z,8.44
2016-12-18T00:39:22.731Z,8.42
2016-12-18T00:39:48.836Z,8.38
2016-12-18T00:40:14.961Z,8.36
2016-12-18T00:40:41.134Z,8.38
2016-12-18T00:41:07.307Z,8.45
2016-12-18T00:41:33.503Z,8.46
2016-12-18T00:41:59.673Z,8.36
2016-12-18T00:42:25.779Z,8.36
2016-12-18T00:42:51.888Z,8.34
2016-12-18T00:43:18.006Z,8.34
2016-12-18T00:43:44.122Z,8.31
2016-12-18T00:44:10.241Z,8.31
2016-12-18T00:44:36.344Z,8.33
2016-12-18T00:45:02.470Z,8.41
2016-12-18T00:45:28.636Z,8.3
2016-12-18T00:45:54.696Z,8.3
2016-12-18T00:46:20.808Z,8.3
2016-12-18T00:46:46.925Z,8.31
2016-12-18T00:47:13.035Z,8.36
2016-12-18T00:47:39.146Z,8.34
2016-12-18T00:48:05.275Z,8.36
2016-12-18T00:48:31.381Z,8.31
2016-12-18T00:48:57.489Z,8.36
2016-12-18T00:49:23.613Z,8.38
2016-12-18T00:49:49.719Z,8.41
2016-12-18T00:50:15.825Z,8.37
2016-12-18T00:50:41.949Z,8.41
2016-12-18T00:51:08.068Z,8.37
2016-12-18T00:51:34.171Z,8.34
2016-12-18T00:52:00.290Z,8.37
2016-12-18T00:52:26.408Z,8.33
2016-12-18T00:52:52.522Z,8.38
2016-12-18T00:53:18.632Z,8.33
2016-12-18T00:53:44.741Z,8.27
2016-12-18T00:54:10.863Z,8.31
2016-12-18T00:54:36.975Z,8.34
2016-12-18T00:55:03.084Z,8.3
2016-12-18T00:55:29.207Z,8.3
2016-12-18T00:55:55.335Z,8.3
2016-12-18T00:56:21.432Z,8.3
2016-12-18T00:56:47.545Z,8.31
2016-12-18T00:57:13.669Z,8.28
2016-12-18T00:57:39.777Z,8.38
2016-12-18T00:58:05.891Z,8.28
2016-12-18T00:58:32.005Z,8.27
2016-12-18T00:58:58.126Z,8.28
2016-12-18T00:59:24.251Z,8.28
2016-12-18T00:59:50.354Z,8.27
2016-12-18T01:00:16.468Z,8.3
2016-12-18T01:00:42.588Z,8.34
2016-12-18T01:01:08.688Z,8.37
2016-12-18T01:01:34.800Z,8.44
2016-12-18T01:02:00.930Z,8.38
2016-12-18T01:02:27.065Z,8.44
2016-12-18T01:02:53.171Z,8.45
2016-12-18T01:03:19.289Z,8.44
2016-12-18T01:03:45.404Z,8.41
2016-12-18T01:04:11.525Z,8.42
2016-12-18T01:04:37.629Z,8.46
2016-12-18T01:05:03.741Z,8.36
2016-12-18T01:05:29.863Z,8.42
2016-12-18T01:05:55.973Z,8.36
2016-12-18T01:06:22.080Z,8.45
2016-12-18T01:06:48.210Z,8.38
2016-12-18T01:07:14.318Z,8.48
2016-12-18T01:07:40.419Z,8.49
2016-12-18T01:08:06.544Z,8.52
2016-12-18T01:08:32.659Z,8.48
2016-12-18T01:08:58.770Z,8.48
2016-12-18T01:09:24.884Z,8.42
2016-12-18T01:09:50.988Z,8.45
2016-12-18T01:10:17.117Z,8.48
2016-12-18T01:10:43.235Z,8.45
2016-12-18T01:11:09.339Z,8.34
2016-12-18T01:11:35.458Z,8.44
2016-12-18T01:12:01.574Z,8.37
2016-12-18T01:12:27.682Z,8.41
2016-12-18T01:12:53.800Z,8.42
2016-12-18T01:13:19.925Z,8.48
2016-12-18T01:13:46.027Z,8.45
2016-12-18T01:14:12.141Z,8.48
2016-12-18T01:14:38.261Z,8.52
2016-12-18T01:15:04.362Z,8.58
2016-12-18T01:15:30.485Z,8.45
2016-12-18T01:15:56.587Z,8.58
2016-12-18T01:16:22.704Z,8.55
2016-12-18T01:16:48.826Z,8.52
2016-12-18T01:17:14.931Z,8.56
2016-12-18T01:17:41.049Z,8.53
2016-12-18T01:18:07.169Z,8.64
2016-12-18T01:18:33.275Z,8.6
2016-12-18T01:18:59.385Z,8.51
2016-12-18T01:19:25.512Z,8.48
2016-12-18T01:19:51.625Z,8.49
2016-12-18T01:20:17.733Z,8.45
2016-12-18T01:20:43.851Z,8.53
2016-12-18T01:21:09.967Z,8.56
2016-12-18T01:21:36.094Z,8.63
2016-12-18T01:22:02.195Z,8.6
2016-12-18T01:22:28.309Z,8.56
2016-12-18T01:22:54.425Z,8.64
2016-12-18T01:23:20.539Z,8.49
2016-12-18T01:23:46.643Z,8.52
2016-12-18T01:24:12.775Z,8.44
2016-12-18T01:24:38.890Z,8.61
2016-12-18T01:25:05.001Z,8.58
2016-12-18T01:25:31.117Z,8.63
2016-12-18T01:25:57.232Z,8.66
2016-12-18T01:26:23.352Z,8.6
2016-12-18T01:26:49.457Z,8.61
2016-12-18T01:27:15.558Z,8.56
2016-12-18T01:27:41.684Z,8.55
2016-12-18T01:28:07.796Z,8.61
2016-12-18T01:28:33.903Z,8.63
2016-12-18T01:29:00.053Z,8.53
2016-12-18T01:29:26.168Z,8.61
2016-12-18T01:29:52.276Z,8.6
2016-12-18T01:30:18.397Z,8.63
2016-12-18T01:30:44.517Z,8.67
2016-12-18T01:31:10.628Z,8.64
2016-12-18T01:31:36.747Z,8.61
2016-12-18T01:32:02.870Z,8.67
2016-12-18T01:32:28.976Z,8.66
2016-12-18T01:32:55.111Z,8.61
2016-12-18T01:33:21.234Z,8.6
2016-12-18T01:33:47.339Z,8.6
2016-12-18T01:34:13.450Z,8.53
2016-12-18T01:34:39.572Z,8.42
2016-12-18T01:35:05.682Z,8.45
2016-12-18T01:35:31.785Z,8.51
2016-12-18T01:35:57.912Z,8.48
2016-12-18T01:36:24.029Z,8.49
2016-12-18T01:36:50.136Z,8.51
2016-12-18T01:37:16.261Z,8.49
2016-12-18T01:37:42.360Z,8.44
2016-12-18T01:38:08.489Z,8.44
2016-12-18T01:38:34.609Z,8.45
2016-12-18T01:39:00.712Z,8.51
2016-12-18T01:39:26.832Z,8.53
2016-12-18T01:39:52.945Z,8.38
2016-12-18T01:40:19.154Z,8.49
2016-12-18T01:40:45.270Z,8.42
2016-12-18T01:41:11.392Z,8.38
2016-12-18T01:41:37.491Z,8.31
2016-12-18T01:42:03.607Z,8.42
2016-12-18T01:42:29.730Z,8.38
2016-12-18T01:42:55.838Z,8.36
2016-12-18T01:43:21.961Z,8.41
2016-12-18T01:43:48.062Z,8.33
2016-12-18T01:44:14.184Z,8.27
2016-12-18T01:44:40.302Z,8.34
2016-12-18T01:45:06.410Z,8.31
2016-12-18T01:45:32.522Z,8.34
2016-12-18T01:45:58.648Z,8.37
2016-12-18T01:46:24.753Z,8.3
2016-12-18T01:46:50.865Z,8.24
2016-12-18T01:47:16.989Z,8.18
2016-12-18T01:47:43.102Z,8.2
2016-12-18T01:48:09.206Z,8.15
2016-12-18T01:48:35.324Z,8.2
2016-12-18T01:49:01.444Z,8.27
2016-12-18T01:49:27.571Z,8.28
2016-12-18T01:49:53.673Z,8.31
2016-12-18T01:50:19.788Z,8.28
2016-12-18T01:50:45.909Z,8.3
2016-12-18T01:51:12.019Z,8.31
2016-12-18T01:51:38.123Z,8.3
2016-12-18T01:52:04.250Z,8.27
2016-12-18T01:52:30.357Z,8.28
2016-12-18T01:52:56.465Z,8.28
2016-12-18T01:53:22.585Z,8.31
2016-12-18T01:53:48.701Z,8.34
2016-12-18T01:54:14.815Z,8.34
2016-12-18T01:54:40.925Z,8.38
2016-12-18T01:55:07.034Z,8.38
2016-12-18T01:55:33.161Z,8.44
2016-12-18T01:55:59.273Z,8.48
2016-12-18T01:56:25.375Z,8.45
2016-12-18T01:56:51.503Z,8.48
2016-12-18T01:57:17.616Z,8.51
2016-12-18T01:57:43.722Z,8.49
2016-12-18T01:58:09.843Z,8.48
2016-12-18T01:58:35.965Z,8.55
2016-12-18T01:59:02.062Z,8.56
2016-12-18T01:59:28.176Z,8.53
2016-12-18T01:59:54.284Z,8.61
2016-12-18T02:00:20.406Z,8.61
2016-12-18T02:00:46.521Z,8.56
2016-12-18T02:01:12.623Z,8.46
2016-12-18T02:01:38.745Z,8.51
2016-12-18T02:02:04.875Z,8.41
2016-12-18T02:02:30.977Z,8.44
2016-12-18T02:02:57.096Z,8.34
2016-12-18T02:03:23.216Z,8.41
2016-12-18T02:03:49.322Z,8.45
2016-12-18T02:04:15.434Z,8.38
2016-12-18T02:04:41.559Z,8.46
2016-12-18T02:05:07.671Z,8.48
2016-12-18T02:05:33.790Z,8.34
2016-12-18T02:05:59.891Z,8.36
2016-12-18T02:06:26.001Z,8.33
2016-12-18T02:06:52.125Z,8.41
2016-12-18T02:07:18.226Z,8.41
2016-12-18T02:07:44.338Z,8.41
2016-12-18T02:08:10.489Z,8.45
2016-12-18T02:08:36.602Z,8.49
2016-12-18T02:09:02.710Z,8.44
2016-12-18T02:09:28.832Z,8.44
2016-12-18T02:09:54.941Z,8.51
2016-12-18T02:10:21.043Z,8.55
2016-12-18T02:10:47.170Z,8.55
2016-12-18T02:11:13.277Z,8.58
2016-12-18T02:11:39.401Z,8.67
2016-12-18T02:12:05.510Z,8.52
2016-12-18T02:12:31.614Z,8.6
2016-12-18T02:12:57.777Z,8.42
2016-12-18T02:13:23.887Z,8.49
2016-12-18T02:13:49.996Z,8.45
2016-12-18T02:14:16.114Z,8.49
2016-12-18T02:14:42.228Z,8.44
2016-12-18T02:15:08.329Z,8.52
2016-12-18T02:15:34.448Z,8.61
2016-12-18T02:16:00.575Z,8.6
2016-12-18T02:16:26.676Z,8.6
2016-12-18T02:16:52.793Z,8.44
2016-12-18T02:17:18.909Z,8.42
2016-12-18T02:17:45.018Z,8.46
2016-12-18T02:18:11.129Z,8.49
2016-12-18T02:18:37.248Z,8.46
2016-12-18T02:19:03.358Z,8.51
2016-12-18T02:19:29.470Z,8.45
2016-12-18T02:19:55.590Z,8.42
2016-12-18T02:20:21.705Z,8.51
2016-12-18T02:20:47.810Z,8.48
2016-12-18T02:21:13.935Z,8.46
2016-12-18T02:21:40.052Z,8.46
2016-12-18T02:22:06.170Z,8.48
2016-12-18T02:22:32.273Z,8.44
2016-12-18T02:22:58.377Z,8.46
2016-12-18T02:23:24.500Z,8.45
2016-12-18T02:23:50.613Z,8.56
2016-12-18T02:24:16.719Z,8.46
2016-12-18T02:24:42.847Z,8.51
2016-12-18T02:25:08.956Z,8.44
2016-12-18T02:25:35.066Z,8.52
2016-12-18T02:26:01.188Z,8.48
2016-12-18T02:26:27.312Z,8.44
2016-12-18T02:26:53.414Z,8.49
2016-12-18T02:27:19.526Z,8.48
2016-12-18T02:27:45.645Z,8.51
2016-12-18T02:28:11.762Z,8.42
2016-12-18T02:28:37.873Z,8.49
2016-12-18T02:29:03.980Z,8.48
2016-12-18T02:29:30.103Z,8.49
2016-12-18T02:29:56.227Z,8.42
2016-12-18T02:30:22.331Z,8.48
2016-12-18T02:30:48.444Z,8.44
2016-12-18T02:31:14.562Z,8.45
2016-12-18T02:31:40.673Z,8.37
2016-12-18T02:32:06.782Z,8.41
2016-12-18T02:32:32.911Z,8.45
2016-12-18T02:32:59.016Z,8.48
2016-12-18T02:33:25.134Z,8.38
2016-12-18T02:33:51.240Z,8.45
2016-12-18T02:34:17.351Z,8.51
2016-12-18T02:34:43.470Z,8.49
2016-12-18T02:35:09.582Z,8.44
2016-12-18T02:35:35.702Z,8.48
2016-12-18T02:36:01.817Z,8.45
2016-12-18T02:36:27.928Z,8.46
2016-12-18T02:36:54.036Z,8.46
2016-12-18T02:37:20.158Z,8.52
2016-12-18T02:37:46.268Z,8.42
2016-12-18T02:38:12.374Z,8.37
2016-12-18T02:38:38.496Z,8.37
2016-12-18T02:39:04.607Z,8.37
2016-12-18T02:39:30.724Z,8.45
2016-12-18T02:39:56.835Z,8.44
2016-12-18T02:40:22.936Z,8.44
2016-12-18T02:40:49.114Z,8.48
2016-12-18T02:41:15.223Z,8.45
2016-12-18T02:41:41.332Z,8.49
2016-12-18T02:42:07.449Z,8.49
2016-12-18T02:42:33.564Z,8.46
2016-12-18T02:42:59.671Z,8.46
2016-12-18T02:43:25.795Z,8.52
2016-12-18T02:43:51.917Z,8.53
2016-12-18T02:44:18.021Z,8.66
2016-12-18T02:44:44.135Z,8.67
2016-12-18T02:45:10.241Z,8.64
2016-12-18T02:45:36.363Z,8.66
2016-12-18T02:46:02.480Z,8.7
2016-12-18T02:46:28.581Z,8.7
2016-12-18T02:46:54.704Z,8.73
2016-12-18T02:47:20.822Z,8.69
2016-12-18T02:47:46.924Z,8.71
2016-12-18T02:48:13.038Z,8.64
2016-12-18T02:48:39.160Z,8.74
2016-12-18T02:49:05.265Z,8.63
2016-12-18T02:49:31.375Z,8.56
2016-12-18T02:49:57.485Z,8.71
2016-12-18T02:50:23.608Z,8.61
2016-12-18T02:50:49.722Z,8.67
2016-12-18T02:51:15.826Z,8.76
2016-12-18T02:51:41.939Z,8.76
2016-12-18T02:52:08.064Z,8.76
2016-12-18T02:52:34.170Z,8.76
2016-12-18T02:53:00.286Z,8.74
2016-12-18T02:53:26.405Z,8.74
2016-12-18T02:53:52.518Z,8.67
2016-12-18T02:54:18.625Z,8.66
2016-12-18T02:54:44.755Z,8.6
2016-12-18T02:55:10.901Z,8.66
2016-12-18T02:55:37.017Z,8.7
2016-12-18T02:56:03.123Z,8.74
2016-12-18T02:56:29.242Z,8.76
2016-12-18T02:56:55.362Z,8.71
2016-12-18T02:57:21.468Z,8.71
2016-12-18T02:57:47.568Z,8.74
2016-12-18T02:58:13.699Z,8.71
2016-12-18T02:58:39.809Z,8.76
2016-12-18T02:59:05.917Z,8.73
2016-12-18T02:59:32.043Z,8.71
2016-12-18T02:59:58.164Z,8.6
2016-12-18T03:00:24.264Z,8.7
2016-12-18T03:00:50.383Z,8.6
2016-12-18T03:01:16.503Z,8.73
2016-12-18T03:01:42.639Z,8.73
2016-12-18T03:02:08.751Z,8.7
2016-12-18T03:02:34.878Z,8.61
2016-12-18T03:03:00.980Z,8.73
2016-12-18T03:03:27.091Z,8.74
2016-12-18T03:03:53.214Z,8.73
2016-12-18T03:04:19.325Z,8.69
2016-12-18T03:04:45.431Z,8.63
2016-12-18T03:05:11.556Z,8.63
2016-12-18T03:05:37.662Z,8.6
2016-12-18T03:06:03.761Z,8.64
2016-12-18T03:06:29.885Z,8.63
2016-12-18T03:06:55.995Z,8.61
2016-12-18T03:07:22.113Z,8.69
2016-12-18T03:07:48.222Z,8.73
2016-12-18T03:08:14.327Z,8.73
2016-12-18T03:08:40.457Z,8.71
2016-12-18T03:09:06.567Z,8.76
2016-12-18T03:09:32.674Z,8.78
2016-12-18T03:09:58.796Z,8.76
2016-12-18T03:10:24.912Z,8.81
2016-12-18T03:10:51.014Z,8.78
2016-12-18T03:11:17.201Z,8.74
2016-12-18T03:11:43.325Z,8.92
2016-12-18T03:12:09.433Z,8.82
2016-12-18T03:12:35.542Z,8.88
2016-12-18T03:13:01.653Z,8.84
2016-12-18T03:13:27.771Z,8.88
2016-12-18T03:13:53.888Z,8.82
2016-12-18T03:14:19.992Z,8.89
2016-12-18T03:14:46.108Z,8.91
2016-12-18T03:15:12.226Z,8.91
2016-12-18T03:15:38.328Z,8.89
2016-12-18T03:16:04.443Z,8.85
2016-12-18T03:16:30.565Z,8.89
2016-12-18T03:16:56.672Z,8.87
2016-12-18T03:17:22.787Z,8.99
2016-12-18T03:17:48.898Z,8.87
2016-12-18T03:18:15.017Z,8.97
2016-12-18T03:18:41.133Z,8.85
2016-12-18T03:19:07.242Z,8.88
2016-12-18T03:19:33.351Z,8.88
2016-12-18T03:19:59.478Z,8.87
2016-12-18T03:20:25.581Z,8.82
2016-12-18T03:20:51.699Z,8.85
2016-12-18T03:21:17.823Z,8.85
2016-12-18T03:21:43.932Z,8.85
2016-12-18T03:22:10.035Z,8.87
2016-12-18T03:22:36.155Z,8.94
2016-12-18T03:23:02.268Z,8.92
2016-12-18T03:23:28.385Z,8.91
2016-12-18T03:23:54.492Z,8.89
2016-12-18T03:24:20.601Z,8.94
2016-12-18T03:24:46.725Z,8.97
2016-12-18T03:25:12.834Z,9
2016-12-18T03:25:38.939Z,8.85
2016-12-18T03:26:05.062Z,8.99
2016-12-18T03:26:31.173Z,8.89
2016-12-18T03:26:57.272Z,8.89
2016-12-18T03:27:23.401Z,9.04
2016-12-18T03:27:49.517Z,9.06
2016-12-18T03:28:15.623Z,9
2016-12-18T03:28:41.737Z,9.03
2016-12-18T03:29:07.848Z,9.06
2016-12-18T03:29:33.975Z,8.99
2016-12-18T03:30:00.092Z,9.1
2016-12-18T03:30:26.196Z,9.02
2016-12-18T03:30:52.318Z,9.04
2016-12-18T03:31:18.428Z,8.87
2016-12-18T03:31:44.528Z,8.87
2016-12-18T03:32:10.649Z,8.97
2016-12-18T03:32:36.778Z,8.94
2016-12-18T03:33:02.880Z,8.95
2016-12-18T03:33:28.997Z,8.92
2016-12-18T03:33:55.115Z,9.02
2016-12-18T03:34:21.224Z,9.08
2016-12-18T03:34:47.345Z,9.03
2016-12-18T03:35:13.454Z,8.89
2016-12-18T03:35:39.571Z,9
2016-12-18T03:36:05.694Z,9.03
2016-12-18T03:36:31.802Z,8.95
2016-12-18T03:36:57.922Z,8.97
2016-12-18T03:37:24.045Z,8.95
2016-12-18T03:37:50.148Z,9
2016-12-18T03:38:16.260Z,9.08
2016-12-18T03:38:42.384Z,9.06
2016-12-18T03:39:08.493Z,9.08
2016-12-18T03:39:34.608Z,9.06
2016-12-18T03:40:00.723Z,9.08
2016-12-18T03:40:26.842Z,9.02
2016-12-18T03:40:52.969Z,8.97
2016-12-18T03:41:19.081Z,8.92
2016-12-18T03:41:45.248Z,8.89
2016-12-18T03:42:11.364Z,9.04
2016-12-18T03:42:37.468Z,8.91
2016-12-18T03:43:03.571Z,8.97
2016-12-18T03:43:29.697Z,8.91
2016-12-18T03:43:55.817Z,9.1
2016-12-18T03:44:21.921Z,9.08
2016-12-18T03:44:48.040Z,9.08
2016-12-18T03:45:14.151Z,9
2016-12-18T03:45:40.257Z,8.89
2016-12-18T03:46:06.379Z,8.97
2016-12-18T03:46:32.504Z,9.02
2016-12-18T03:46:58.603Z,8.97
2016-12-18T03:47:24.719Z,9
2016-12-18T03:47:50.838Z,8.88
2016-12-18T03:48:16.943Z,8.97
2016-12-18T03:48:43.053Z,8.97
2016-12-18T03:49:09.182Z,8.97
2016-12-18T03:49:35.284Z,8.88
2016-12-18T03:50:01.399Z,8.87
2016-12-18T03:50:27.517Z,8.81
2016-12-18T03:50:53.632Z,8.87
2016-12-18T03:51:19.753Z,8.85
2016-12-18T03:51:45.860Z,8.85
2016-12-18T03:52:11.974Z,8.85
2016-12-18T03:52:38.095Z,8.84
2016-12-18T03:53:04.200Z,8.91
2016-12-18T03:53:30.308Z,8.94
2016-12-18T03:53:56.438Z,8.95
2016-12-18T03:54:22.550Z,8.85
2016-12-18T03:54:48.656Z,8.88
2016-12-18T03:55:14.780Z,8.97
2016-12-18T03:55:40.911Z,9.02
2016-12-18T03:56:07.003Z,8.92
2016-12-18T03:56:33.120Z,8.99
2016-12-18T03:56:59.218Z,8.91
2016-12-18T03:57:25.345Z,8.97
2016-12-18T03:57:51.456Z,8.95
2016-12-18T03:58:17.561Z,8.97
2016-12-18T03:58:43.681Z,9.02
2016-12-18T03:59:09.798Z,9.1
2016-12-18T03:59:35.904Z,9.11
2016-12-18T04:00:02.022Z,9.1
2016-12-18T04:00:28.149Z,9.08
2016-12-18T04:00:54.247Z,9.18
2016-12-18T04:01:20.368Z,9.23
2016-12-18T04:01:46.484Z,9.18
2016-12-18T04:02:12.590Z,9.21
2016-12-18T04:02:38.710Z,9.21
2016-12-18T04:03:04.814Z,9.18
2016-12-18T04:03:30.938Z,9.16
2016-12-18T04:03:57.087Z,9.16
2016-12-18T04:04:23.195Z,9.14
2016-12-18T04:04:49.314Z,9.14
2016-12-18T04:05:15.431Z,9.11
2016-12-18T04:05:41.534Z,9.11
2016-12-18T04:06:07.642Z,9.08
2016-12-18T04:06:33.771Z,9
2016-12-18T04:06:59.879Z,9.13
2016-12-18T04:07:25.991Z,9.03
2016-12-18T04:07:52.105Z,9.16
2016-12-18T04:08:18.221Z,9.16
2016-12-18T04:08:44.347Z,9.14
2016-12-18T04:09:10.452Z,9.1
2016-12-18T04:09:36.567Z,9.13
2016-12-18T04:10:02.686Z,9.1
2016-12-18T04:10:28.794Z,9.16
2016-12-18T04:10:54.899Z,9.02
2016-12-18T04:11:21.022Z,8.95
2016-12-18T04:11:47.179Z,9.03
2016-12-18T04:12:13.288Z,9.08
2016-12-18T04:12:39.412Z,9.1
2016-12-18T04:13:05.527Z,9.03
2016-12-18T04:13:31.647Z,9.04
2016-12-18T04:13:57.751Z,9.04
2016-12-18T04:14:23.856Z,9
2016-12-18T04:14:49.982Z,9.13
2016-12-18T04:15:16.097Z,9.11
2016-12-18T04:15:42.205Z,9.08
2016-12-18T04:16:08.325Z,9.11
2016-12-18T04:16:34.447Z,9.19
2016-12-18T04:17:00.545Z,9.11
2016-12-18T04:17:26.670Z,9.13
2016-12-18T04:17:52.787Z,9.11
2016-12-18T04:18:18.886Z,9.08
2016-12-18T04:18:44.999Z,9.06
2016-12-18T04:19:11.104Z,9.02
2016-12-18T04:19:37.229Z,9.04
2016-12-18T04:20:03.352Z,9.03
2016-12-18T04:20:29.452Z,9.02
2016-12-18T04:20:55.573Z,9
2016-12-18T04:21:21.691Z,8.95
2016-12-18T04:21:47.799Z,8.99
2016-12-18T04:22:13.910Z,9.03
2016-12-18T04:22:40.030Z,8.89
2016-12-18T04:23:06.131Z,9.06
2016-12-18T04:23:32.250Z,9.04
2016-12-18T04:23:58.367Z,9.02
2016-12-18T04:24:24.509Z,9.06
2016-12-18T04:24:50.633Z,9.06
2016-12-18T04:25:16.729Z,9.03
2016-12-18T04:25:42.844Z,9.03
2016-12-18T04:26:08.968Z,9.13
2016-12-18T04:26:35.075Z,9.03
2016-12-18T04:27:01.191Z,9.13
2016-12-18T04:27:27.310Z,9.11
2016-12-18T04:27:53.419Z,9.04
2016-12-18T04:28:19.524Z,9.11
2016-12-18T04:28:45.651Z,9.1
2016-12-18T04:29:11.761Z,9.03
2016-12-18T04:29:37.867Z,8.91
2016-12-18T04:30:03.990Z,9.02
2016-12-18T04:30:30.107Z,8.94
2016-12-18T04:30:56.208Z,8.95
2016-12-18T04:31:22.328Z,8.97
2016-12-18T04:31:48.447Z,8.95
2016-12-18T04:32:14.555Z,8.97
2016-12-18T04:32:40.670Z,8.85
2016-12-18T04:33:06.790Z,8.87
2016-12-18T04:33:32.902Z,8.81
2016-12-18T04:33:59.010Z,8.88
2016-12-18T04:34:25.130Z,8.84
2016-12-18T04:34:51.238Z,8.81
2016-12-18T04:35:17.347Z,8.73
2016-12-18T04:35:43.468Z,8.79
2016-12-18T04:36:09.583Z,8.76
2016-12-18T04:36:35.710Z,8.78
2016-12-18T04:37:01.810Z,8.78
2016-12-18T04:37:27.922Z,8.74
2016-12-18T04:37:54.038Z,8.76
2016-12-18T04:38:20.153Z,8.7
2016-12-18T04:38:46.253Z,8.71
2016-12-18T04:39:12.381Z,8.64
2016-12-18T04:39:38.489Z,8.74
2016-12-18T04:40:04.596Z,8.61
2016-12-18T04:40:30.714Z,8.6
2016-12-18T04:40:56.826Z,8.52
2016-12-18T04:41:22.943Z,8.63
2016-12-18T04:41:49.052Z,8.61
2016-12-18T04:42:15.201Z,8.63
2016-12-18T04:42:41.331Z,8.63
2016-12-18T04:43:07.435Z,8.61
2016-12-18T04:43:33.543Z,8.67
2016-12-18T04:43:59.664Z,8.67
2016-12-18T04:44:25.783Z,8.76
2016-12-18T04:44:51.887Z,8.76
2016-12-18T04:45:18.006Z,8.73
2016-12-18T04:45:44.124Z,8.76
2016-12-18T04:46:10.228Z,8.84
2016-12-18T04:46:36.349Z,8.81
2016-12-18T04:47:02.459Z,8.82
2016-12-18T04:47:28.583Z,8.85
2016-12-18T04:47:54.699Z,8.74
2016-12-18T04:48:20.803Z,8.82
2016-12-18T04:48:46.924Z,8.79
2016-12-18T04:49:13.040Z,8.85
2016-12-18T04:49:39.144Z,8.84
2016-12-18T04:50:05.258Z,8.84
2016-12-18T04:50:31.380Z,8.85
2016-12-18T04:50:57.488Z,8.73
2016-12-18T04:51:23.598Z,8.76
2016-12-18T04:51:49.725Z,8.79
2016-12-18T04:52:15.830Z,8.82
2016-12-18T04:52:41.946Z,8.85
2016-12-18T04:53:08.056Z,8.82
2016-12-18T04:53:34.172Z,8.79
2016-12-18T04:54:00.293Z,8.74
2016-12-18T04:54:26.396Z,8.78
2016-12-18T04:54:52.507Z,8.63
2016-12-18T04:55:18.629Z,8.64
2016-12-18T04:55:44.741Z,8.64
2016-12-18T04:56:10.849Z,8.52
2016-12-18T04:56:37.006Z,8.52
2016-12-18T04:57:03.116Z,8.51
2016-12-18T04:57:29.220Z,8.61
2016-12-18T04:57:55.342Z,8.63
2016-12-18T04:58:21.451Z,8.63
2016-12-18T04:58:47.574Z,8.61
2016-12-18T04:59:13.686Z,8.52
2016-12-18T04:59:39.795Z,8.58
2016-12-18T05:00:05.913Z,8.51
2016-12-18T05:00:32.026Z,8.49
2016-12-18T05:00:58.133Z,8.58
2016-12-18T05:01:24.252Z,8.55
2016-12-18T05:01:50.366Z,8.52
2016-12-18T05:02:16.469Z,8.56
2016-12-18T05:02:42.593Z,8.53
2016-12-18T05:03:08.715Z,8.63
2016-12-18T05:03:34.821Z,8.52
2016-12-18T05:04:00.929Z,8.46
2016-12-18T05:04:27.035Z,8.53
2016-12-18T05:04:53.158Z,8.46
2016-12-18T05:05:19.276Z,8.48
2016-12-18T05:05:45.382Z,8.52
2016-12-18T05:06:11.499Z,8.58
2016-12-18T05:06:37.619Z,8.61
2016-12-18T05:07:03.723Z,8.52
2016-12-18T05:07:29.844Z,8.52
2016-12-18T05:07:55.967Z,8.55
2016-12-18T05:08:22.070Z,8.55
2016-12-18T05:08:48.177Z,8.61
2016-12-18T05:09:14.292Z,8.56
2016-12-18T05:09:40.412Z,8.51
2016-12-18T05:10:06.532Z,8.49
2016-12-18T05:10:32.633Z,8.51
2016-12-18T05:10:58.746Z,8.61
2016-12-18T05:11:24.867Z,8.52
2016-12-18T05:11:50.978Z,8.52
2016-12-18T05:12:17.091Z,8.44
2016-12-18T05:12:43.211Z,8.42
2016-12-18T05:13:09.320Z,8.38
2016-12-18T05:13:35.425Z,8.45
2016-12-18T05:14:01.557Z,8.45
2016-12-18T05:14:27.671Z,8.42
2016-12-18T05:14:53.772Z,8.36
2016-12-18T05:15:19.894Z,8.36
2016-12-18T05:15:46.045Z,8.48
2016-12-18T05:16:12.150Z,8.45
2016-12-18T05:16:38.271Z,8.33
2016-12-18T05:17:04.396Z,8.38
2016-12-18T05:17:30.496Z,8.38
2016-12-18T05:17:56.610Z,8.37
2016-12-18T05:18:22.729Z,8.38
2016-12-18T05:18:48.837Z,8.33
2016-12-18T05:19:14.947Z,8.36
2016-12-18T05:19:41.072Z,8.36
2016-12-18T05:20:07.180Z,8.36
2016-12-18T05:20:33.300Z,8.37
2016-12-18T05:20:59.401Z,8.38
2016-12-18T05:21:25.521Z,8.37
2016-12-18T05:21:51.646Z,8.36
2016-12-18T05:22:17.745Z,8.37
2016-12-18T05:22:43.856Z,8.3
2016-12-18T05:23:09.975Z,8.31
2016-12-18T05:23:36.088Z,8.28
2016-12-18T05:24:02.197Z,8.27
2016-12-18T05:24:28.321Z,8.31
2016-12-18T05:24:54.464Z,8.34
2016-12-18T05:25:20.564Z,8.3
2016-12-18T05:25:46.689Z,8.33
2016-12-18T05:26:12.807Z,8.33
2016-12-18T05:26:38.919Z,8.26
2016-12-18T05:27:05.030Z,8.28
2016-12-18T05:27:31.139Z,8.28
2016-12-18T05:27:57.265Z,8.24
2016-12-18T05:28:23.380Z,8.3
2016-12-18T05:28:49.488Z,8.3
2016-12-18T05:29:15.605Z,8.27
2016-12-18T05:29:41.716Z,8.31
2016-12-18T05:30:07.827Z,8.33
2016-12-18T05:30:33.942Z,8.31
2016-12-18T05:31:00.070Z,8.33
2016-12-18T05:31:26.173Z,8.31
2016-12-18T05:31:52.281Z,8.3
2016-12-18T05:32:18.383Z,8.34
2016-12-18T05:32:44.502Z,8.36
2016-12-18T05:33:10.617Z,8.37
2016-12-18T05:33:36.722Z,8.37
2016-12-18T05:34:02.839Z,8.37
2016-12-18T05:34:28.957Z,8.36
2016-12-18T05:34:55.066Z,8.33
2016-12-18T05:35:21.182Z,8.38
2016-12-18T05:35:47.301Z,8.37
2016-12-18T05:36:13.405Z,8.34
2016-12-18T05:36:39.515Z,8.38
2016-12-18T05:37:05.642Z,8.33
2016-12-18T05:37:31.757Z,8.28
2016-12-18T05:37:57.866Z,8.38
2016-12-18T05:38:23.993Z,8.27
2016-12-18T05:38:50.102Z,8.31
2016-12-18T05:39:16.202Z,8.3
2016-12-18T05:39:42.323Z,8.3
2016-12-18T05:40:08.441Z,8.36
2016-12-18T05:40:34.548Z,8.38
2016-12-18T05:41:00.668Z,8.28
2016-12-18T05:41:26.792Z,8.26
2016-12-18T05:41:52.888Z,8.31
2016-12-18T05:42:19.001Z,8.27
2016-12-18T05:42:45.160Z,8.28
2016-12-18T05:43:11.276Z,8.28
2016-12-18T05:43:37.385Z,8.24
2016-12-18T05:44:03.490Z,8.31
2016-12-18T05:44:29.611Z,8.28
2016-12-18T05:44:55.740Z,8.28
2016-12-18T05:45:21.850Z,8.26
2016-12-18T05:45:48.043Z,8.28
2016-12-18T05:46:14.193Z,8.23
2016-12-18T05:46:40.310Z,8.3
2016-12-18T05:47:06.420Z,8.28
2016-12-18T05:47:32.557Z,8.33
2016-12-18T05:47:58.678Z,8.33
2016-12-18T05:48:24.799Z,8.28
2016-12-18T05:48:50.900Z,8.3